Terminal Aerodrome Forecast
Issued by NWS Brownsville, TX

Home | Current Version | Previous Version | Text Only | Print | Product List | Glossary On
Versions: 1 2 3 4 5 6 7 8 9 10 11 12 13
456
FTUS44 KBRO 271733
TAFBRO
TAF
KBRO 271733Z 2718/2818 13015G20KT P6SM SCT035 BKN180
     FM280200 13013KT P6SM FEW030 SCT150 BKN250
     FM280600 15007KT P6SM FEW020 BKN250
     FM281500 14013G19KT P6SM SCT040 BKN150=

USA.gov is the U.S. government's official web portal to all federal, state and local government web resources and services.